sensor_id;sensor_type;location;lat;lon;timestamp;temperature;humidity
80132;SHT30;69442;51.442;10.564;2023-12-20T00:02:09;5.50;85.60
80132;SHT30;69442;51.442;10.564;2023-12-20T00:04:35;5.48;85.68
80132;SHT30;69442;51.442;10.564;2023-12-20T00:07:00;5.53;85.63
80132;SHT30;69442;51.442;10.564;2023-12-20T00:09:26;5.52;85.61
80132;SHT30;69442;51.442;10.564;2023-12-20T00:11:52;5.53;85.66
80132;SHT30;69442;51.442;10.564;2023-12-20T00:14:17;5.45;85.86
80132;SHT30;69442;51.442;10.564;2023-12-20T00:16:42;5.49;85.83
80132;SHT30;69442;51.442;10.564;2023-12-20T00:19:08;5.49;85.82
80132;SHT30;69442;51.442;10.564;2023-12-20T00:21:33;5.49;85.87
80132;SHT30;69442;51.442;10.564;2023-12-20T00:23:58;5.50;85.80
80132;SHT30;69442;51.442;10.564;2023-12-20T00:26:24;5.50;85.85
80132;SHT30;69442;51.442;10.564;2023-12-20T00:28:49;5.49;85.99
80132;SHT30;69442;51.442;10.564;2023-12-20T00:31:14;5.50;85.91
80132;SHT30;69442;51.442;10.564;2023-12-20T00:33:40;5.49;86.03
80132;SHT30;69442;51.442;10.564;2023-12-20T00:36:08;5.50;85.97
80132;SHT30;69442;51.442;10.564;2023-12-20T00:38:34;5.50;85.89
80132;SHT30;69442;51.442;10.564;2023-12-20T00:40:59;5.49;85.96
80132;SHT30;69442;51.442;10.564;2023-12-20T00:43:24;5.48;86.13
80132;SHT30;69442;51.442;10.564;2023-12-20T00:45:50;5.50;86.06
80132;SHT30;69442;51.442;10.564;2023-12-20T00:48:15;5.50;85.98
80132;SHT30;69442;51.442;10.564;2023-12-20T00:50:40;5.52;85.90
80132;SHT30;69442;51.442;10.564;2023-12-20T00:53:06;5.52;85.89
80132;SHT30;69442;51.442;10.564;2023-12-20T00:55:31;5.52;86.00
80132;SHT30;69442;51.442;10.564;2023-12-20T00:57:56;5.50;86.00
80132;SHT30;69442;51.442;10.564;2023-12-20T01:00:22;5.52;86.03
80132;SHT30;69442;51.442;10.564;2023-12-20T01:02:47;5.52;86.14
80132;SHT30;69442;51.442;10.564;2023-12-20T01:05:15;5.52;86.09
80132;SHT30;69442;51.442;10.564;2023-12-20T01:07:40;5.52;86.25
80132;SHT30;69442;51.442;10.564;2023-12-20T01:10:06;5.46;86.41
80132;SHT30;69442;51.442;10.564;2023-12-20T01:12:31;5.52;86.28
80132;SHT30;69442;51.442;10.564;2023-12-20T01:14:56;5.52;86.27
80132;SHT30;69442;51.442;10.564;2023-12-20T01:17:23;5.52;86.29
80132;SHT30;69442;51.442;10.564;2023-12-20T01:19:48;5.55;86.13
80132;SHT30;69442;51.442;10.564;2023-12-20T01:22:13;5.52;86.14
80132;SHT30;69442;51.442;10.564;2023-12-20T01:24:38;5.55;86.20
80132;SHT30;69442;51.442;10.564;2023-12-20T01:27:04;5.55;86.21
80132;SHT30;69442;51.442;10.564;2023-12-20T01:29:29;5.55;86.12
80132;SHT30;69442;51.442;10.564;2023-12-20T01:31:55;5.56;86.40
80132;SHT30;69442;51.442;10.564;2023-12-20T01:34:20;5.57;86.28
80132;SHT30;69442;51.442;10.564;2023-12-20T01:36:46;5.59;86.27
80132;SHT30;69442;51.442;10.564;2023-12-20T01:39:11;5.59;86.25
80132;SHT30;69442;51.442;10.564;2023-12-20T01:41:36;5.62;86.03
80132;SHT30;69442;51.442;10.564;2023-12-20T01:44:02;5.59;86.22
80132;SHT30;69442;51.442;10.564;2023-12-20T01:46:27;5.63;86.05
80132;SHT30;69442;51.442;10.564;2023-12-20T01:48:53;5.65;86.12
80132;SHT30;69442;51.442;10.564;2023-12-20T01:51:19;5.63;86.26
80132;SHT30;69442;51.442;10.564;2023-12-20T01:53:45;5.62;86.22
80132;SHT30;69442;51.442;10.564;2023-12-20T01:56:11;5.62;86.34
80132;SHT30;69442;51.442;10.564;2023-12-20T01:58:44;5.60;86.33
80132;SHT30;69442;51.442;10.564;2023-12-20T02:01:11;5.62;86.44
80132;SHT30;69442;51.442;10.564;2023-12-20T02:03:36;5.60;86.55
80132;SHT30;69442;51.442;10.564;2023-12-20T02:06:03;5.63;86.50
80132;SHT30;69442;51.442;10.564;2023-12-20T02:08:29;5.62;86.54
80132;SHT30;69442;51.442;10.564;2023-12-20T02:10:56;5.66;86.53
80132;SHT30;69442;51.442;10.564;2023-12-20T02:13:21;5.66;86.42
80132;SHT30;69442;51.442;10.564;2023-12-20T02:15:47;5.66;86.33
80132;SHT30;69442;51.442;10.564;2023-12-20T02:18:12;5.67;86.35
80132;SHT30;69442;51.442;10.564;2023-12-20T02:20:40;5.70;86.29
80132;SHT30;69442;51.442;10.564;2023-12-20T02:23:06;5.70;86.22
80132;SHT30;69442;51.442;10.564;2023-12-20T02:25:31;5.69;86.42
80132;SHT30;69442;51.442;10.564;2023-12-20T02:27:56;5.73;86.46
80132;SHT30;69442;51.442;10.564;2023-12-20T02:30:22;5.70;86.49
80132;SHT30;69442;51.442;10.564;2023-12-20T02:32:49;5.74;86.22
80132;SHT30;69442;51.442;10.564;2023-12-20T02:35:15;5.76;86.45
80132;SHT30;69442;51.442;10.564;2023-12-20T02:37:40;5.73;86.49
80132;SHT30;69442;51.442;10.564;2023-12-20T02:40:06;5.71;86.57
80132;SHT30;69442;51.442;10.564;2023-12-20T02:42:31;5.73;86.77
80132;SHT30;69442;51.442;10.564;2023-12-20T02:44:57;5.70;86.90
80132;SHT30;69442;51.442;10.564;2023-12-20T02:47:22;5.71;86.60
80132;SHT30;69442;51.442;10.564;2023-12-20T02:49:48;5.73;87.22
80132;SHT30;69442;51.442;10.564;2023-12-20T02:52:14;5.74;87.21
80132;SHT30;69442;51.442;10.564;2023-12-20T02:54:39;5.74;86.98
80132;SHT30;69442;51.442;10.564;2023-12-20T02:57:05;5.74;87.24
80132;SHT30;69442;51.442;10.564;2023-12-20T02:59:30;5.74;87.29
80132;SHT30;69442;51.442;10.564;2023-12-20T03:01:55;5.76;87.15
80132;SHT30;69442;51.442;10.564;2023-12-20T03:04:21;5.74;87.18
80132;SHT30;69442;51.442;10.564;2023-12-20T03:06:46;5.74;87.35
80132;SHT30;69442;51.442;10.564;2023-12-20T03:09:11;5.76;87.28
80132;SHT30;69442;51.442;10.564;2023-12-20T03:11:37;5.74;87.23
80132;SHT30;69442;51.442;10.564;2023-12-20T03:14:02;5.76;86.93
80132;SHT30;69442;51.442;10.564;2023-12-20T03:16:28;5.74;86.78
80132;SHT30;69442;51.442;10.564;2023-12-20T03:18:53;5.76;86.41
80132;SHT30;69442;51.442;10.564;2023-12-20T03:21:18;5.74;86.29
80132;SHT30;69442;51.442;10.564;2023-12-20T03:23:45;5.74;86.08
80132;SHT30;69442;51.442;10.564;2023-12-20T03:26:10;5.73;86.20
80132;SHT30;69442;51.442;10.564;2023-12-20T03:28:36;5.71;86.07
80132;SHT30;69442;51.442;10.564;2023-12-20T03:31:02;5.77;86.12
80132;SHT30;69442;51.442;10.564;2023-12-20T03:33:27;5.76;85.98
80132;SHT30;69442;51.442;10.564;2023-12-20T03:35:53;5.73;85.83
80132;SHT30;69442;51.442;10.564;2023-12-20T03:38:18;5.77;85.75
80132;SHT30;69442;51.442;10.564;2023-12-20T03:40:44;5.80;85.94
80132;SHT30;69442;51.442;10.564;2023-12-20T03:43:09;5.78;85.77
80132;SHT30;69442;51.442;10.564;2023-12-20T03:45:35;5.78;85.43
80132;SHT30;69442;51.442;10.564;2023-12-20T03:48:00;5.80;85.41
80132;SHT30;69442;51.442;10.564;2023-12-20T03:50:26;5.77;85.44
80132;SHT30;69442;51.442;10.564;2023-12-20T03:52:52;5.77;85.35
80132;SHT30;69442;51.442;10.564;2023-12-20T03:55:17;5.77;85.26
80132;SHT30;69442;51.442;10.564;2023-12-20T03:57:43;5.77;85.20
80132;SHT30;69442;51.442;10.564;2023-12-20T04:00:09;5.80;85.13
80132;SHT30;69442;51.442;10.564;2023-12-20T04:02:36;5.80;85.13
80132;SHT30;69442;51.442;10.564;2023-12-20T04:05:01;5.78;84.73
80132;SHT30;69442;51.442;10.564;2023-12-20T04:07:26;5.77;84.63
80132;SHT30;69442;51.442;10.564;2023-12-20T04:09:52;5.74;84.44
80132;SHT30;69442;51.442;10.564;2023-12-20T04:12:17;5.76;84.41
80132;SHT30;69442;51.442;10.564;2023-12-20T04:14:42;5.77;84.18
80132;SHT30;69442;51.442;10.564;2023-12-20T04:17:08;5.77;84.69
80132;SHT30;69442;51.442;10.564;2023-12-20T04:19:33;5.78;84.03
80132;SHT30;69442;51.442;10.564;2023-12-20T04:21:59;5.81;83.96
80132;SHT30;69442;51.442;10.564;2023-12-20T04:24:24;5.78;84.24
80132;SHT30;69442;51.442;10.564;2023-12-20T04:26:49;5.80;83.97
80132;SHT30;69442;51.442;10.564;2023-12-20T04:29:15;5.74;83.73
80132;SHT30;69442;51.442;10.564;2023-12-20T04:31:40;5.76;84.00
80132;SHT30;69442;51.442;10.564;2023-12-20T04:34:05;5.74;83.56
80132;SHT30;69442;51.442;10.564;2023-12-20T04:36:31;5.70;83.45
80132;SHT30;69442;51.442;10.564;2023-12-20T04:38:56;5.71;82.92
80132;SHT30;69442;51.442;10.564;2023-12-20T04:41:21;5.73;83.08
80132;SHT30;69442;51.442;10.564;2023-12-20T04:43:47;5.74;83.19
80132;SHT30;69442;51.442;10.564;2023-12-20T04:46:12;5.74;83.04
80132;SHT30;69442;51.442;10.564;2023-12-20T04:48:37;5.71;82.50
80132;SHT30;69442;51.442;10.564;2023-12-20T04:51:03;5.73;82.53
80132;SHT30;69442;51.442;10.564;2023-12-20T04:53:28;5.69;82.38
80132;SHT30;69442;51.442;10.564;2023-12-20T04:55:54;5.71;82.60
80132;SHT30;69442;51.442;10.564;2023-12-20T04:58:19;5.71;82.34
80132;SHT30;69442;51.442;10.564;2023-12-20T05:00:44;5.74;82.46
80132;SHT30;69442;51.442;10.564;2023-12-20T05:03:10;5.73;82.76
80132;SHT30;69442;51.442;10.564;2023-12-20T05:05:35;5.69;81.65
80132;SHT30;69442;51.442;10.564;2023-12-20T05:08:01;5.70;82.82
80132;SHT30;69442;51.442;10.564;2023-12-20T05:10:26;5.66;82.23
80132;SHT30;69442;51.442;10.564;2023-12-20T05:12:53;5.66;83.00
80132;SHT30;69442;51.442;10.564;2023-12-20T05:15:18;5.62;81.91
80132;SHT30;69442;51.442;10.564;2023-12-20T05:17:43;5.70;83.25
80132;SHT30;69442;51.442;10.564;2023-12-20T05:20:09;5.63;82.09
80132;SHT30;69442;51.442;10.564;2023-12-20T05:22:34;5.67;83.10
80132;SHT30;69442;51.442;10.564;2023-12-20T05:25:00;5.65;82.40
80132;SHT30;69442;51.442;10.564;2023-12-20T05:27:25;5.63;82.45
80132;SHT30;69442;51.442;10.564;2023-12-20T05:29:50;5.65;83.13
80132;SHT30;69442;51.442;10.564;2023-12-20T05:32:16;5.67;82.97
80132;SHT30;69442;51.442;10.564;2023-12-20T05:34:41;5.71;83.37
80132;SHT30;69442;51.442;10.564;2023-12-20T05:37:07;5.71;82.78
80132;SHT30;69442;51.442;10.564;2023-12-20T05:39:32;5.71;82.76
80132;SHT30;69442;51.442;10.564;2023-12-20T05:41:57;5.67;81.41
80132;SHT30;69442;51.442;10.564;2023-12-20T05:44:23;5.65;81.17
80132;SHT30;69442;51.442;10.564;2023-12-20T05:46:48;5.67;81.92
80132;SHT30;69442;51.442;10.564;2023-12-20T05:49:14;5.70;82.27
80132;SHT30;69442;51.442;10.564;2023-12-20T05:51:39;5.69;82.31
80132;SHT30;69442;51.442;10.564;2023-12-20T05:54:04;5.66;80.54
80132;SHT30;69442;51.442;10.564;2023-12-20T05:56:30;5.65;81.01
80132;SHT30;69442;51.442;10.564;2023-12-20T05:58:55;5.67;81.80
80132;SHT30;69442;51.442;10.564;2023-12-20T06:01:20;5.63;81.64
80132;SHT30;69442;51.442;10.564;2023-12-20T06:03:46;5.55;81.25
80132;SHT30;69442;51.442;10.564;2023-12-20T06:06:11;5.55;81.54
80132;SHT30;69442;51.442;10.564;2023-12-20T06:08:38;5.56;81.72
80132;SHT30;69442;51.442;10.564;2023-12-20T06:11:03;5.59;82.53
80132;SHT30;69442;51.442;10.564;2023-12-20T06:13:28;5.59;82.46
80132;SHT30;69442;51.442;10.564;2023-12-20T06:15:54;5.57;81.80
80132;SHT30;69442;51.442;10.564;2023-12-20T06:18:20;5.49;80.99
80132;SHT30;69442;51.442;10.564;2023-12-20T06:20:46;5.49;81.48
80132;SHT30;69442;51.442;10.564;2023-12-20T06:23:11;5.48;81.02
80132;SHT30;69442;51.442;10.564;2023-12-20T06:25:36;5.48;81.44
80132;SHT30;69442;51.442;10.564;2023-12-20T06:28:02;5.42;80.92
80132;SHT30;69442;51.442;10.564;2023-12-20T06:30:27;5.39;80.76
80132;SHT30;69442;51.442;10.564;2023-12-20T06:32:54;5.42;81.64
80132;SHT30;69442;51.442;10.564;2023-12-20T06:35:20;5.42;81.33
80132;SHT30;69442;51.442;10.564;2023-12-20T06:37:45;5.45;81.20
80132;SHT30;69442;51.442;10.564;2023-12-20T06:40:11;5.43;81.21
80132;SHT30;69442;51.442;10.564;2023-12-20T06:42:36;5.43;81.83
80132;SHT30;69442;51.442;10.564;2023-12-20T06:45:02;5.43;82.23
80132;SHT30;69442;51.442;10.564;2023-12-20T06:47:28;5.40;81.66
80132;SHT30;69442;51.442;10.564;2023-12-20T06:49:53;5.38;81.98
80132;SHT30;69442;51.442;10.564;2023-12-20T06:52:19;5.40;82.51
80132;SHT30;69442;51.442;10.564;2023-12-20T06:54:44;5.38;82.17
80132;SHT30;69442;51.442;10.564;2023-12-20T06:57:09;5.39;81.75
80132;SHT30;69442;51.442;10.564;2023-12-20T06:59:41;5.39;81.04
80132;SHT30;69442;51.442;10.564;2023-12-20T07:02:08;5.39;81.41
80132;SHT30;69442;51.442;10.564;2023-12-20T07:04:33;5.38;81.83
80132;SHT30;69442;51.442;10.564;2023-12-20T07:06:59;5.38;82.32
80132;SHT30;69442;51.442;10.564;2023-12-20T07:09:26;5.38;82.12
80132;SHT30;69442;51.442;10.564;2023-12-20T07:11:52;5.36;81.76
80132;SHT30;69442;51.442;10.564;2023-12-20T07:14:18;5.31;81.34
80132;SHT30;69442;51.442;10.564;2023-12-20T07:16:43;5.38;82.20
80132;SHT30;69442;51.442;10.564;2023-12-20T07:19:08;5.40;81.85
80132;SHT30;69442;51.442;10.564;2023-12-20T07:21:34;5.42;82.63
80132;SHT30;69442;51.442;10.564;2023-12-20T07:23:59;5.43;81.79
80132;SHT30;69442;51.442;10.564;2023-12-20T07:26:25;5.42;81.96
80132;SHT30;69442;51.442;10.564;2023-12-20T07:28:50;5.46;82.23
80132;SHT30;69442;51.442;10.564;2023-12-20T07:31:16;5.43;81.53
80132;SHT30;69442;51.442;10.564;2023-12-20T07:33:41;5.48;82.05
80132;SHT30;69442;51.442;10.564;2023-12-20T07:36:07;5.43;82.46
80132;SHT30;69442;51.442;10.564;2023-12-20T07:38:33;5.40;81.62
80132;SHT30;69442;51.442;10.564;2023-12-20T07:40:58;5.38;82.10
80132;SHT30;69442;51.442;10.564;2023-12-20T07:43:23;5.39;82.49
80132;SHT30;69442;51.442;10.564;2023-12-20T07:45:49;5.29;81.82
80132;SHT30;69442;51.442;10.564;2023-12-20T07:48:14;5.29;81.36
80132;SHT30;69442;51.442;10.564;2023-12-20T07:50:39;5.28;81.50
80132;SHT30;69442;51.442;10.564;2023-12-20T07:53:05;5.28;82.04
80132;SHT30;69442;51.442;10.564;2023-12-20T07:55:30;5.29;82.11
80132;SHT30;69442;51.442;10.564;2023-12-20T07:57:57;5.28;81.92
80132;SHT30;69442;51.442;10.564;2023-12-20T08:00:23;5.27;82.36
80132;SHT30;69442;51.442;10.564;2023-12-20T08:02:48;5.32;83.05
80132;SHT30;69442;51.442;10.564;2023-12-20T08:05:14;5.32;82.38
80132;SHT30;69442;51.442;10.564;2023-12-20T08:07:39;5.31;82.37
80132;SHT30;69442;51.442;10.564;2023-12-20T08:10:05;5.34;83.07
80132;SHT30;69442;51.442;10.564;2023-12-20T08:12:31;5.32;82.47
80132;SHT30;69442;51.442;10.564;2023-12-20T08:14:56;5.34;83.06
80132;SHT30;69442;51.442;10.564;2023-12-20T08:17:22;5.34;82.47
80132;SHT30;69442;51.442;10.564;2023-12-20T08:19:48;5.35;82.75
80132;SHT30;69442;51.442;10.564;2023-12-20T08:22:13;5.36;82.99
80132;SHT30;69442;51.442;10.564;2023-12-20T08:24:39;5.35;82.25
80132;SHT30;69442;51.442;10.564;2023-12-20T08:27:04;5.39;82.77
80132;SHT30;69442;51.442;10.564;2023-12-20T08:29:30;5.39;82.78
80132;SHT30;69442;51.442;10.564;2023-12-20T08:31:56;5.38;82.36
80132;SHT30;69442;51.442;10.564;2023-12-20T08:34:22;5.42;82.73
80132;SHT30;69442;51.442;10.564;2023-12-20T08:36:50;5.43;83.11
80132;SHT30;69442;51.442;10.564;2023-12-20T08:39:16;5.43;82.75
80132;SHT30;69442;51.442;10.564;2023-12-20T08:41:41;5.45;82.90
80132;SHT30;69442;51.442;10.564;2023-12-20T08:44:07;5.49;82.76
80132;SHT30;69442;51.442;10.564;2023-12-20T08:46:32;5.46;82.44
80132;SHT30;69442;51.442;10.564;2023-12-20T08:48:57;5.46;82.90
80132;SHT30;69442;51.442;10.564;2023-12-20T08:51:23;5.42;82.79
80132;SHT30;69442;51.442;10.564;2023-12-20T08:53:50;5.45;83.18
80132;SHT30;69442;51.442;10.564;2023-12-20T08:56:16;5.53;83.24
80132;SHT30;69442;51.442;10.564;2023-12-20T08:58:43;5.53;83.67
80132;SHT30;69442;51.442;10.564;2023-12-20T09:01:08;5.48;83.23
80132;SHT30;69442;51.442;10.564;2023-12-20T09:03:34;5.50;83.90
80132;SHT30;69442;51.442;10.564;2023-12-20T09:05:59;5.45;83.17
80132;SHT30;69442;51.442;10.564;2023-12-20T09:08:25;5.42;82.61
80132;SHT30;69442;51.442;10.564;2023-12-20T09:10:50;5.43;83.52
80132;SHT30;69442;51.442;10.564;2023-12-20T09:13:15;5.45;83.71
80132;SHT30;69442;51.442;10.564;2023-12-20T09:15:41;5.40;82.57
80132;SHT30;69442;51.442;10.564;2023-12-20T09:18:06;5.38;82.86
80132;SHT30;69442;51.442;10.564;2023-12-20T09:20:32;5.40;83.20
80132;SHT30;69442;51.442;10.564;2023-12-20T09:22:58;5.45;83.73
80132;SHT30;69442;51.442;10.564;2023-12-20T09:25:23;5.45;83.00
80132;SHT30;69442;51.442;10.564;2023-12-20T09:27:49;5.42;82.90
80132;SHT30;69442;51.442;10.564;2023-12-20T09:30:14;5.45;82.99
80132;SHT30;69442;51.442;10.564;2023-12-20T09:32:39;5.46;83.05
80132;SHT30;69442;51.442;10.564;2023-12-20T09:35:05;5.46;82.22
80132;SHT30;69442;51.442;10.564;2023-12-20T09:37:31;5.53;83.11
80132;SHT30;69442;51.442;10.564;2023-12-20T09:39:57;5.57;82.99
80132;SHT30;69442;51.442;10.564;2023-12-20T09:44:59;5.60;82.24
80132;SHT30;69442;51.442;10.564;2023-12-20T09:47:27;5.65;82.31
80132;SHT30;69442;51.442;10.564;2023-12-20T09:49:52;5.66;81.90
80132;SHT30;69442;51.442;10.564;2023-12-20T09:52:19;5.74;82.41
80132;SHT30;69442;51.442;10.564;2023-12-20T09:54:49;5.71;82.18
80132;SHT30;69442;51.442;10.564;2023-12-20T09:57:16;5.67;81.78
80132;SHT30;69442;51.442;10.564;2023-12-20T09:59:41;5.71;82.36
80132;SHT30;69442;51.442;10.564;2023-12-20T10:02:10;5.73;81.70
80132;SHT30;69442;51.442;10.564;2023-12-20T10:04:38;5.74;81.77
80132;SHT30;69442;51.442;10.564;2023-12-20T10:07:05;5.77;82.17
80132;SHT30;69442;51.442;10.564;2023-12-20T10:09:33;5.77;82.00
80132;SHT30;69442;51.442;10.564;2023-12-20T10:11:59;5.78;82.31
80132;SHT30;69442;51.442;10.564;2023-12-20T10:14:25;5.80;82.42
80132;SHT30;69442;51.442;10.564;2023-12-20T10:16:50;5.81;81.57
80132;SHT30;69442;51.442;10.564;2023-12-20T10:19:19;5.86;81.89
80132;SHT30;69442;51.442;10.564;2023-12-20T10:21:44;5.83;81.46
80132;SHT30;69442;51.442;10.564;2023-12-20T10:24:16;5.84;81.84
80132;SHT30;69442;51.442;10.564;2023-12-20T10:26:42;5.84;82.35
80132;SHT30;69442;51.442;10.564;2023-12-20T10:29:07;5.83;81.75
80132;SHT30;69442;51.442;10.564;2023-12-20T10:31:34;5.84;82.06
80132;SHT30;69442;51.442;10.564;2023-12-20T10:34:01;5.87;82.08
80132;SHT30;69442;51.442;10.564;2023-12-20T10:36:29;5.84;82.51
80132;SHT30;69442;51.442;10.564;2023-12-20T10:38:55;5.90;82.49
80132;SHT30;69442;51.442;10.564;2023-12-20T10:41:27;5.83;80.77
80132;SHT30;69442;51.442;10.564;2023-12-20T10:44:02;5.87;81.30
80132;SHT30;69442;51.442;10.564;2023-12-20T10:46:30;5.87;80.88
80132;SHT30;69442;51.442;10.564;2023-12-20T10:48:57;5.84;80.95
80132;SHT30;69442;51.442;10.564;2023-12-20T10:51:24;5.89;82.18
80132;SHT30;69442;51.442;10.564;2023-12-20T10:53:52;5.93;82.24
80132;SHT30;69442;51.442;10.564;2023-12-20T10:56:19;5.94;82.86
80132;SHT30;69442;51.442;10.564;2023-12-20T10:58:48;5.97;82.45
80132;SHT30;69442;51.442;10.564;2023-12-20T11:01:14;5.98;82.57
80132;SHT30;69442;51.442;10.564;2023-12-20T11:03:48;5.98;82.01
80132;SHT30;69442;51.442;10.564;2023-12-20T11:06:36;6.01;82.31
80132;SHT30;69442;51.442;10.564;2023-12-20T11:09:29;6.02;83.05
80132;SHT30;69442;51.442;10.564;2023-12-20T11:14:35;6.11;82.67
80132;SHT30;69442;51.442;10.564;2023-12-20T11:17:10;6.11;81.32
80132;SHT30;69442;51.442;10.564;2023-12-20T11:20:10;6.19;81.10
80132;SHT30;69442;51.442;10.564;2023-12-20T11:22:36;6.21;80.93
80132;SHT30;69442;51.442;10.564;2023-12-20T11:27:30;6.22;80.83
80132;SHT30;69442;51.442;10.564;2023-12-20T11:29:57;6.22;80.85
80132;SHT30;69442;51.442;10.564;2023-12-20T11:34:55;6.21;80.27
80132;SHT30;69442;51.442;10.564;2023-12-20T11:37:21;6.24;80.72
80132;SHT30;69442;51.442;10.564;2023-12-20T11:39:58;6.26;80.78
80132;SHT30;69442;51.442;10.564;2023-12-20T11:42:25;6.29;81.06
80132;SHT30;69442;51.442;10.564;2023-12-20T11:44:50;6.32;81.70
80132;SHT30;69442;51.442;10.564;2023-12-20T11:47:16;6.33;81.70
80132;SHT30;69442;51.442;10.564;2023-12-20T11:49:44;6.36;82.12
80132;SHT30;69442;51.442;10.564;2023-12-20T11:52:12;6.35;81.31
80132;SHT30;69442;51.442;10.564;2023-12-20T11:54:38;6.36;81.01
80132;SHT30;69442;51.442;10.564;2023-12-20T11:57:03;6.36;80.87
80132;SHT30;69442;51.442;10.564;2023-12-20T11:59:30;6.43;81.66
80132;SHT30;69442;51.442;10.564;2023-12-20T12:01:56;6.43;81.58
80132;SHT30;69442;51.442;10.564;2023-12-20T12:04:26;6.40;80.98
80132;SHT30;69442;51.442;10.564;2023-12-20T12:06:51;6.45;83.03
80132;SHT30;69442;51.442;10.564;2023-12-20T12:09:16;6.45;81.81
80132;SHT30;69442;51.442;10.564;2023-12-20T12:11:42;6.46;81.30
80132;SHT30;69442;51.442;10.564;2023-12-20T12:14:08;6.43;80.38
80132;SHT30;69442;51.442;10.564;2023-12-20T12:16:33;6.39;80.54
80132;SHT30;69442;51.442;10.564;2023-12-20T12:18:59;6.43;81.09
80132;SHT30;69442;51.442;10.564;2023-12-20T12:21:25;6.46;82.12
80132;SHT30;69442;51.442;10.564;2023-12-20T12:23:51;6.40;80.14
80132;SHT30;69442;51.442;10.564;2023-12-20T12:26:16;6.45;80.82
80132;SHT30;69442;51.442;10.564;2023-12-20T12:28:42;6.43;81.11
80132;SHT30;69442;51.442;10.564;2023-12-20T12:31:09;6.42;80.51
80132;SHT30;69442;51.442;10.564;2023-12-20T12:33:38;6.45;80.85
80132;SHT30;69442;51.442;10.564;2023-12-20T12:36:03;6.46;80.97
80132;SHT30;69442;51.442;10.564;2023-12-20T12:38:32;6.46;81.35
80132;SHT30;69442;51.442;10.564;2023-12-20T12:40:57;6.49;81.89
80132;SHT30;69442;51.442;10.564;2023-12-20T12:43:23;6.49;81.78
80132;SHT30;69442;51.442;10.564;2023-12-20T12:45:49;6.47;80.15
80132;SHT30;69442;51.442;10.564;2023-12-20T12:48:14;6.47;80.14
80132;SHT30;69442;51.442;10.564;2023-12-20T12:50:40;6.47;80.57
80132;SHT30;69442;51.442;10.564;2023-12-20T12:53:05;6.47;81.27
80132;SHT30;69442;51.442;10.564;2023-12-20T12:55:30;6.49;81.74
80132;SHT30;69442;51.442;10.564;2023-12-20T12:57:56;6.47;81.43
80132;SHT30;69442;51.442;10.564;2023-12-20T13:00:21;6.49;82.13
80132;SHT30;69442;51.442;10.564;2023-12-20T13:02:47;6.47;82.20
80132;SHT30;69442;51.442;10.564;2023-12-20T13:05:12;6.42;81.01
80132;SHT30;69442;51.442;10.564;2023-12-20T13:07:38;6.40;81.40
80132;SHT30;69442;51.442;10.564;2023-12-20T13:10:05;6.42;81.78
80132;SHT30;69442;51.442;10.564;2023-12-20T13:12:31;6.43;82.09
80132;SHT30;69442;51.442;10.564;2023-12-20T13:14:57;6.43;82.54
80132;SHT30;69442;51.442;10.564;2023-12-20T13:17:22;6.45;83.01
80132;SHT30;69442;51.442;10.564;2023-12-20T13:19:48;6.46;82.45
80132;SHT30;69442;51.442;10.564;2023-12-20T13:22:15;6.43;81.94
80132;SHT30;69442;51.442;10.564;2023-12-20T13:24:40;6.43;82.27
80132;SHT30;69442;51.442;10.564;2023-12-20T13:27:05;6.43;82.11
80132;SHT30;69442;51.442;10.564;2023-12-20T13:29:31;6.39;82.48
80132;SHT30;69442;51.442;10.564;2023-12-20T13:31:56;6.43;82.28
80132;SHT30;69442;51.442;10.564;2023-12-20T13:34:22;6.40;82.57
80132;SHT30;69442;51.442;10.564;2023-12-20T13:36:48;6.38;82.34
80132;SHT30;69442;51.442;10.564;2023-12-20T13:39:15;6.42;82.94
80132;SHT30;69442;51.442;10.564;2023-12-20T13:41:41;6.42;82.74
80132;SHT30;69442;51.442;10.564;2023-12-20T13:44:07;6.42;82.81
80132;SHT30;69442;51.442;10.564;2023-12-20T13:46:32;6.42;82.71
80132;SHT30;69442;51.442;10.564;2023-12-20T13:48:57;6.40;82.61
80132;SHT30;69442;51.442;10.564;2023-12-20T13:51:23;6.40;82.90
80132;SHT30;69442;51.442;10.564;2023-12-20T13:53:49;6.39;82.58
80132;SHT30;69442;51.442;10.564;2023-12-20T13:56:15;6.36;82.17
80132;SHT30;69442;51.442;10.564;2023-12-20T13:58:40;6.39;82.58
80132;SHT30;69442;51.442;10.564;2023-12-20T14:01:08;6.39;82.67
80132;SHT30;69442;51.442;10.564;2023-12-20T14:03:34;6.35;82.65
80132;SHT30;69442;51.442;10.564;2023-12-20T14:05:59;6.35;82.71
80132;SHT30;69442;51.442;10.564;2023-12-20T14:08:25;6.38;83.55
80132;SHT30;69442;51.442;10.564;2023-12-20T14:10:52;6.35;83.33
80132;SHT30;69442;51.442;10.564;2023-12-20T14:13:17;6.42;83.80
80132;SHT30;69442;51.442;10.564;2023-12-20T14:15:44;6.39;83.51
80132;SHT30;69442;51.442;10.564;2023-12-20T14:18:09;6.36;83.29
80132;SHT30;69442;51.442;10.564;2023-12-20T14:20:35;6.32;82.88
80132;SHT30;69442;51.442;10.564;2023-12-20T14:23:04;6.33;83.48
80132;SHT30;69442;51.442;10.564;2023-12-20T14:25:29;6.29;82.53
80132;SHT30;69442;51.442;10.564;2023-12-20T14:27:56;6.30;83.33
80132;SHT30;69442;51.442;10.564;2023-12-20T14:30:21;6.28;82.29
80132;SHT30;69442;51.442;10.564;2023-12-20T14:32:46;6.29;82.43
80132;SHT30;69442;51.442;10.564;2023-12-20T14:35:14;6.28;83.36
80132;SHT30;69442;51.442;10.564;2023-12-20T14:37:39;6.25;82.96
80132;SHT30;69442;51.442;10.564;2023-12-20T14:40:09;6.21;82.80
80132;SHT30;69442;51.442;10.564;2023-12-20T14:42:40;6.14;82.87
80132;SHT30;69442;51.442;10.564;2023-12-20T14:45:07;6.18;82.84
80132;SHT30;69442;51.442;10.564;2023-12-20T14:47:33;6.24;83.55
80132;SHT30;69442;51.442;10.564;2023-12-20T14:49:58;6.19;83.04
80132;SHT30;69442;51.442;10.564;2023-12-20T14:52:23;6.21;82.64
80132;SHT30;69442;51.442;10.564;2023-12-20T14:54:49;6.18;82.36
80132;SHT30;69442;51.442;10.564;2023-12-20T14:57:14;6.18;82.46
80132;SHT30;69442;51.442;10.564;2023-12-20T14:59:40;6.19;82.45
80132;SHT30;69442;51.442;10.564;2023-12-20T15:02:06;6.17;82.94
80132;SHT30;69442;51.442;10.564;2023-12-20T15:04:32;6.19;83.57
80132;SHT30;69442;51.442;10.564;2023-12-20T15:06:57;6.18;82.76
80132;SHT30;69442;51.442;10.564;2023-12-20T15:09:23;6.18;83.04
80132;SHT30;69442;51.442;10.564;2023-12-20T15:11:49;6.18;82.51
80132;SHT30;69442;51.442;10.564;2023-12-20T15:14:14;6.21;82.99
80132;SHT30;69442;51.442;10.564;2023-12-20T15:16:44;6.21;82.75
80132;SHT30;69442;51.442;10.564;2023-12-20T15:19:09;6.19;82.35
80132;SHT30;69442;51.442;10.564;2023-12-20T15:21:35;6.15;82.54
80132;SHT30;69442;51.442;10.564;2023-12-20T15:24:05;6.15;83.09
80132;SHT30;69442;51.442;10.564;2023-12-20T15:26:33;6.18;83.42
80132;SHT30;69442;51.442;10.564;2023-12-20T15:28:59;6.12;82.75
80132;SHT30;69442;51.442;10.564;2023-12-20T15:31:26;6.10;82.93
80132;SHT30;69442;51.442;10.564;2023-12-20T15:33:52;6.12;83.37